sensor_id;sensor_type;location;lat;lon;timestamp;P1;durP1;ratioP1;P2;durP2;ratioP2
63906;SDS011;50075;49.484;11.238;2023-12-22T00:01:03;563.60;;;306.35;;
63906;SDS011;50075;49.484;11.238;2023-12-22T00:03:29;505.67;;;189.32;;
63906;SDS011;50075;49.484;11.238;2023-12-22T00:05:54;599.33;;;321.55;;
63906;SDS011;50075;49.484;11.238;2023-12-22T00:08:19;568.97;;;233.27;;
63906;SDS011;50075;49.484;11.238;2023-12-22T00:10:44;550.50;;;187.98;;
63906;SDS011;50075;49.484;11.238;2023-12-22T00:13:10;598.53;;;313.70;;
63906;SDS011;50075;49.484;11.238;2023-12-22T00:15:35;576.83;;;300.25;;
63906;SDS011;50075;49.484;11.238;2023-12-22T00:18:01;443.98;;;172.15;;
63906;SDS011;50075;49.484;11.238;2023-12-22T00:20:26;555.20;;;217.98;;
63906;SDS011;50075;49.484;11.238;2023-12-22T00:22:51;550.60;;;161.02;;
63906;SDS011;50075;49.484;11.238;2023-12-22T00:25:16;457.60;;;169.63;;
63906;SDS011;50075;49.484;11.238;2023-12-22T00:27:42;623.80;;;323.10;;
63906;SDS011;50075;49.484;11.238;2023-12-22T00:30:07;529.13;;;170.80;;
63906;SDS011;50075;49.484;11.238;2023-12-22T00:32:33;480.33;;;170.55;;
63906;SDS011;50075;49.484;11.238;2023-12-22T00:34:58;492.25;;;269.13;;
63906;SDS011;50075;49.484;11.238;2023-12-22T00:37:24;479.83;;;163.40;;
63906;SDS011;50075;49.484;11.238;2023-12-22T00:39:49;467.58;;;165.90;;
63906;SDS011;50075;49.484;11.238;2023-12-22T00:42:14;436.42;;;150.55;;
63906;SDS011;50075;49.484;11.238;2023-12-22T00:44:40;521.95;;;164.43;;
63906;SDS011;50075;49.484;11.238;2023-12-22T00:47:05;489.42;;;322.80;;
63906;SDS011;50075;49.484;11.238;2023-12-22T00:49:30;433.98;;;177.43;;
63906;SDS011;50075;49.484;11.238;2023-12-22T00:51:56;494.58;;;336.35;;
63906;SDS011;50075;49.484;11.238;2023-12-22T00:54:21;465.38;;;223.32;;
63906;SDS011;50075;49.484;11.238;2023-12-22T00:56:46;517.70;;;278.65;;
63906;SDS011;50075;49.484;11.238;2023-12-22T00:59:12;485.38;;;166.10;;
63906;SDS011;50075;49.484;11.238;2023-12-22T01:01:37;467.88;;;237.35;;
63906;SDS011;50075;49.484;11.238;2023-12-22T01:04:02;469.05;;;290.60;;
63906;SDS011;50075;49.484;11.238;2023-12-22T01:06:28;483.45;;;234.75;;
63906;SDS011;50075;49.484;11.238;2023-12-22T01:08:53;544.88;;;233.00;;
63906;SDS011;50075;49.484;11.238;2023-12-22T01:11:18;410.02;;;184.02;;
63906;SDS011;50075;49.484;11.238;2023-12-22T01:13:44;543.30;;;239.07;;
63906;SDS011;50075;49.484;11.238;2023-12-22T01:16:09;459.15;;;198.77;;
63906;SDS011;50075;49.484;11.238;2023-12-22T01:18:35;436.45;;;176.43;;
63906;SDS011;50075;49.484;11.238;2023-12-22T01:21:00;486.02;;;264.90;;
63906;SDS011;50075;49.484;11.238;2023-12-22T01:23:26;553.58;;;356.33;;
63906;SDS011;50075;49.484;11.238;2023-12-22T01:25:51;572.05;;;216.27;;
63906;SDS011;50075;49.484;11.238;2023-12-22T01:28:17;509.85;;;259.77;;
63906;SDS011;50075;49.484;11.238;2023-12-22T01:30:42;544.55;;;173.63;;
63906;SDS011;50075;49.484;11.238;2023-12-22T01:33:08;479.38;;;203.43;;
63906;SDS011;50075;49.484;11.238;2023-12-22T01:35:33;504.30;;;220.30;;
63906;SDS011;50075;49.484;11.238;2023-12-22T01:37:58;496.20;;;162.68;;
63906;SDS011;50075;49.484;11.238;2023-12-22T01:40:24;472.98;;;182.98;;
63906;SDS011;50075;49.484;11.238;2023-12-22T01:42:49;552.10;;;191.68;;
63906;SDS011;50075;49.484;11.238;2023-12-22T01:45:15;512.47;;;220.15;;
63906;SDS011;50075;49.484;11.238;2023-12-22T01:47:40;591.00;;;326.92;;
63906;SDS011;50075;49.484;11.238;2023-12-22T01:50:07;558.50;;;240.10;;
63906;SDS011;50075;49.484;11.238;2023-12-22T01:52:35;559.00;;;341.77;;
63906;SDS011;50075;49.484;11.238;2023-12-22T01:55:02;488.38;;;210.57;;
63906;SDS011;50075;49.484;11.238;2023-12-22T01:57:27;561.38;;;317.27;;
63906;SDS011;50075;49.484;11.238;2023-12-22T01:59:53;563.15;;;243.52;;
63906;SDS011;50075;49.484;11.238;2023-12-22T02:02:19;441.55;;;239.85;;
63906;SDS011;50075;49.484;11.238;2023-12-22T02:04:44;577.67;;;274.63;;
63906;SDS011;50075;49.484;11.238;2023-12-22T02:07:10;471.30;;;280.30;;
63906;SDS011;50075;49.484;11.238;2023-12-22T02:09:36;472.52;;;268.08;;
63906;SDS011;50075;49.484;11.238;2023-12-22T02:12:02;457.95;;;181.98;;
63906;SDS011;50075;49.484;11.238;2023-12-22T02:14:28;470.13;;;250.07;;
63906;SDS011;50075;49.484;11.238;2023-12-22T02:17:06;443.13;;;181.82;;
63906;SDS011;50075;49.484;11.238;2023-12-22T02:22:08;402.33;;;244.32;;
63906;SDS011;50075;49.484;11.238;2023-12-22T02:24:34;458.48;;;171.25;;
63906;SDS011;50075;49.484;11.238;2023-12-22T02:29:48;613.65;;;295.60;;
63906;SDS011;50075;49.484;11.238;2023-12-22T02:32:21;412.35;;;155.68;;
63906;SDS011;50075;49.484;11.238;2023-12-22T02:34:51;543.35;;;184.35;;
63906;SDS011;50075;49.484;11.238;2023-12-22T02:37:18;514.88;;;266.05;;
63906;SDS011;50075;49.484;11.238;2023-12-22T02:39:46;541.47;;;169.45;;
63906;SDS011;50075;49.484;11.238;2023-12-22T02:42:12;523.88;;;270.92;;
63906;SDS011;50075;49.484;11.238;2023-12-22T02:44:38;533.40;;;186.50;;
63906;SDS011;50075;49.484;11.238;2023-12-22T02:47:04;507.38;;;245.57;;
63906;SDS011;50075;49.484;11.238;2023-12-22T02:49:29;484.90;;;263.77;;
63906;SDS011;50075;49.484;11.238;2023-12-22T02:51:54;562.53;;;185.55;;
63906;SDS011;50075;49.484;11.238;2023-12-22T02:54:20;433.42;;;169.23;;
63906;SDS011;50075;49.484;11.238;2023-12-22T02:56:46;539.15;;;251.40;;
63906;SDS011;50075;49.484;11.238;2023-12-22T02:59:11;514.42;;;203.82;;
63906;SDS011;50075;49.484;11.238;2023-12-22T03:01:37;461.27;;;229.98;;
63906;SDS011;50075;49.484;11.238;2023-12-22T03:04:02;423.38;;;189.27;;
63906;SDS011;50075;49.484;11.238;2023-12-22T03:06:27;418.75;;;168.70;;
63906;SDS011;50075;49.484;11.238;2023-12-22T03:08:53;523.28;;;320.65;;
63906;SDS011;50075;49.484;11.238;2023-12-22T03:11:19;354.45;;;141.52;;
63906;SDS011;50075;49.484;11.238;2023-12-22T03:13:44;484.60;;;251.00;;
63906;SDS011;50075;49.484;11.238;2023-12-22T03:16:09;413.58;;;181.48;;
63906;SDS011;50075;49.484;11.238;2023-12-22T03:18:35;411.00;;;179.40;;
63906;SDS011;50075;49.484;11.238;2023-12-22T03:21:03;393.25;;;167.00;;
63906;SDS011;50075;49.484;11.238;2023-12-22T03:23:29;416.23;;;178.07;;
63906;SDS011;50075;49.484;11.238;2023-12-22T03:25:54;485.42;;;135.20;;
63906;SDS011;50075;49.484;11.238;2023-12-22T03:28:19;406.13;;;150.48;;
63906;SDS011;50075;49.484;11.238;2023-12-22T03:30:44;420.65;;;185.70;;
63906;SDS011;50075;49.484;11.238;2023-12-22T03:33:10;427.38;;;219.00;;
63906;SDS011;50075;49.484;11.238;2023-12-22T03:35:35;399.25;;;134.20;;
63906;SDS011;50075;49.484;11.238;2023-12-22T03:38:00;496.67;;;212.25;;
63906;SDS011;50075;49.484;11.238;2023-12-22T03:40:26;464.38;;;274.70;;
63906;SDS011;50075;49.484;11.238;2023-12-22T03:42:51;515.50;;;181.85;;
63906;SDS011;50075;49.484;11.238;2023-12-22T03:45:16;456.05;;;270.38;;
63906;SDS011;50075;49.484;11.238;2023-12-22T03:47:42;412.30;;;171.75;;
63906;SDS011;50075;49.484;11.238;2023-12-22T03:50:07;412.15;;;159.30;;
63906;SDS011;50075;49.484;11.238;2023-12-22T03:52:33;451.70;;;249.45;;
63906;SDS011;50075;49.484;11.238;2023-12-22T03:54:59;547.15;;;239.52;;
63906;SDS011;50075;49.484;11.238;2023-12-22T03:57:24;421.98;;;197.98;;
63906;SDS011;50075;49.484;11.238;2023-12-22T03:59:49;423.25;;;144.18;;
63906;SDS011;50075;49.484;11.238;2023-12-22T04:02:14;437.50;;;233.65;;
63906;SDS011;50075;49.484;11.238;2023-12-22T04:04:40;454.85;;;231.48;;
63906;SDS011;50075;49.484;11.238;2023-12-22T04:07:05;420.55;;;192.63;;
63906;SDS011;50075;49.484;11.238;2023-12-22T04:09:31;475.08;;;275.45;;
63906;SDS011;50075;49.484;11.238;2023-12-22T04:11:56;555.28;;;340.75;;
63906;SDS011;50075;49.484;11.238;2023-12-22T04:14:21;436.65;;;202.80;;
63906;SDS011;50075;49.484;11.238;2023-12-22T04:16:47;452.85;;;256.75;;
63906;SDS011;50075;49.484;11.238;2023-12-22T04:19:12;527.20;;;352.20;;
63906;SDS011;50075;49.484;11.238;2023-12-22T04:21:38;458.25;;;222.65;;
63906;SDS011;50075;49.484;11.238;2023-12-22T04:24:03;522.63;;;256.70;;
63906;SDS011;50075;49.484;11.238;2023-12-22T04:26:29;444.85;;;234.73;;
63906;SDS011;50075;49.484;11.238;2023-12-22T04:28:55;574.70;;;323.88;;
63906;SDS011;50075;49.484;11.238;2023-12-22T04:31:20;497.05;;;319.35;;
63906;SDS011;50075;49.484;11.238;2023-12-22T04:33:45;448.38;;;165.27;;
63906;SDS011;50075;49.484;11.238;2023-12-22T04:36:11;427.02;;;228.70;;
63906;SDS011;50075;49.484;11.238;2023-12-22T04:38:36;465.20;;;262.92;;
63906;SDS011;50075;49.484;11.238;2023-12-22T04:41:01;587.75;;;248.00;;
63906;SDS011;50075;49.484;11.238;2023-12-22T04:43:27;468.23;;;300.65;;
63906;SDS011;50075;49.484;11.238;2023-12-22T04:45:52;535.28;;;200.18;;
63906;SDS011;50075;49.484;11.238;2023-12-22T04:48:17;485.23;;;209.50;;
63906;SDS011;50075;49.484;11.238;2023-12-22T04:50:43;477.05;;;288.77;;
63906;SDS011;50075;49.484;11.238;2023-12-22T04:53:08;519.53;;;346.42;;
63906;SDS011;50075;49.484;11.238;2023-12-22T04:55:33;558.78;;;322.15;;
63906;SDS011;50075;49.484;11.238;2023-12-22T04:57:59;613.40;;;369.70;;
63906;SDS011;50075;49.484;11.238;2023-12-22T05:00:24;477.75;;;356.90;;
63906;SDS011;50075;49.484;11.238;2023-12-22T05:02:50;503.67;;;221.70;;
63906;SDS011;50075;49.484;11.238;2023-12-22T05:05:15;452.95;;;285.55;;
63906;SDS011;50075;49.484;11.238;2023-12-22T05:07:40;441.15;;;192.18;;
63906;SDS011;50075;49.484;11.238;2023-12-22T05:10:06;630.97;;;330.50;;
63906;SDS011;50075;49.484;11.238;2023-12-22T05:12:32;447.88;;;266.67;;
63906;SDS011;50075;49.484;11.238;2023-12-22T05:14:57;418.65;;;153.85;;
63906;SDS011;50075;49.484;11.238;2023-12-22T05:17:23;449.77;;;223.38;;
63906;SDS011;50075;49.484;11.238;2023-12-22T05:19:48;386.02;;;175.85;;
63906;SDS011;50075;49.484;11.238;2023-12-22T05:22:13;377.45;;;183.30;;
63906;SDS011;50075;49.484;11.238;2023-12-22T05:24:38;414.52;;;156.18;;
63906;SDS011;50075;49.484;11.238;2023-12-22T05:27:04;483.67;;;170.23;;
63906;SDS011;50075;49.484;11.238;2023-12-22T05:29:29;405.25;;;186.93;;
63906;SDS011;50075;49.484;11.238;2023-12-22T05:31:55;536.10;;;182.65;;
63906;SDS011;50075;49.484;11.238;2023-12-22T05:34:20;411.02;;;181.40;;
63906;SDS011;50075;49.484;11.238;2023-12-22T05:36:45;421.55;;;164.10;;
63906;SDS011;50075;49.484;11.238;2023-12-22T05:39:11;550.38;;;313.20;;
63906;SDS011;50075;49.484;11.238;2023-12-22T05:41:36;392.13;;;153.30;;
63906;SDS011;50075;49.484;11.238;2023-12-22T05:44:03;436.17;;;161.80;;
63906;SDS011;50075;49.484;11.238;2023-12-22T05:46:30;487.17;;;276.23;;
63906;SDS011;50075;49.484;11.238;2023-12-22T05:48:55;458.63;;;203.90;;
63906;SDS011;50075;49.484;11.238;2023-12-22T05:51:24;439.75;;;233.00;;
63906;SDS011;50075;49.484;11.238;2023-12-22T05:53:50;445.63;;;182.60;;
63906;SDS011;50075;49.484;11.238;2023-12-22T05:56:19;453.25;;;214.25;;
63906;SDS011;50075;49.484;11.238;2023-12-22T05:58:45;464.25;;;272.73;;
63906;SDS011;50075;49.484;11.238;2023-12-22T06:01:14;586.03;;;246.93;;
63906;SDS011;50075;49.484;11.238;2023-12-22T06:03:43;440.77;;;285.25;;
63906;SDS011;50075;49.484;11.238;2023-12-22T06:06:09;540.30;;;224.60;;
63906;SDS011;50075;49.484;11.238;2023-12-22T06:08:34;452.85;;;255.75;;
63906;SDS011;50075;49.484;11.238;2023-12-22T06:11:00;469.23;;;146.95;;
63906;SDS011;50075;49.484;11.238;2023-12-22T06:13:25;445.83;;;221.45;;
63906;SDS011;50075;49.484;11.238;2023-12-22T06:15:50;396.08;;;151.68;;
63906;SDS011;50075;49.484;11.238;2023-12-22T06:18:16;431.15;;;193.20;;
63906;SDS011;50075;49.484;11.238;2023-12-22T06:20:41;460.85;;;215.63;;
63906;SDS011;50075;49.484;11.238;2023-12-22T06:23:06;501.08;;;256.23;;
63906;SDS011;50075;49.484;11.238;2023-12-22T06:25:31;408.23;;;186.95;;
63906;SDS011;50075;49.484;11.238;2023-12-22T06:27:57;506.95;;;224.30;;
63906;SDS011;50075;49.484;11.238;2023-12-22T06:30:22;405.23;;;204.80;;
63906;SDS011;50075;49.484;11.238;2023-12-22T06:32:48;416.38;;;190.20;;
63906;SDS011;50075;49.484;11.238;2023-12-22T06:35:14;442.80;;;201.70;;
63906;SDS011;50075;49.484;11.238;2023-12-22T06:37:39;449.98;;;217.63;;
63906;SDS011;50075;49.484;11.238;2023-12-22T06:40:05;527.58;;;152.88;;
63906;SDS011;50075;49.484;11.238;2023-12-22T06:42:30;430.38;;;197.00;;
63906;SDS011;50075;49.484;11.238;2023-12-22T06:44:56;414.10;;;194.07;;
63906;SDS011;50075;49.484;11.238;2023-12-22T06:47:21;386.65;;;155.18;;
63906;SDS011;50075;49.484;11.238;2023-12-22T06:49:46;484.35;;;282.13;;
63906;SDS011;50075;49.484;11.238;2023-12-22T06:52:12;459.48;;;191.80;;
63906;SDS011;50075;49.484;11.238;2023-12-22T06:54:37;439.52;;;195.20;;
63906;SDS011;50075;49.484;11.238;2023-12-22T06:57:02;572.38;;;234.68;;
63906;SDS011;50075;49.484;11.238;2023-12-22T06:59:28;421.60;;;176.15;;
63906;SDS011;50075;49.484;11.238;2023-12-22T07:01:53;468.35;;;262.08;;
63906;SDS011;50075;49.484;11.238;2023-12-22T07:04:20;396.48;;;136.25;;
63906;SDS011;50075;49.484;11.238;2023-12-22T07:06:45;438.80;;;212.73;;
63906;SDS011;50075;49.484;11.238;2023-12-22T07:11:48;463.88;;;219.63;;
63906;SDS011;50075;49.484;11.238;2023-12-22T07:14:13;484.15;;;155.98;;
63906;SDS011;50075;49.484;11.238;2023-12-22T07:16:40;411.42;;;162.20;;
63906;SDS011;50075;49.484;11.238;2023-12-22T07:19:07;570.17;;;158.48;;
63906;SDS011;50075;49.484;11.238;2023-12-22T07:21:32;413.75;;;144.70;;
63906;SDS011;50075;49.484;11.238;2023-12-22T07:23:58;366.60;;;156.82;;
63906;SDS011;50075;49.484;11.238;2023-12-22T07:26:23;458.38;;;224.73;;
63906;SDS011;50075;49.484;11.238;2023-12-22T07:28:51;436.30;;;221.98;;
63906;SDS011;50075;49.484;11.238;2023-12-22T07:31:17;430.17;;;215.45;;
63906;SDS011;50075;49.484;11.238;2023-12-22T07:33:42;442.88;;;217.88;;
63906;SDS011;50075;49.484;11.238;2023-12-22T07:36:08;477.42;;;182.45;;
63906;SDS011;50075;49.484;11.238;2023-12-22T07:38:33;398.30;;;173.60;;
63906;SDS011;50075;49.484;11.238;2023-12-22T07:40:59;487.95;;;263.77;;
63906;SDS011;50075;49.484;11.238;2023-12-22T07:43:24;423.08;;;237.00;;
63906;SDS011;50075;49.484;11.238;2023-12-22T07:45:50;464.25;;;291.35;;
63906;SDS011;50075;49.484;11.238;2023-12-22T07:48:16;584.20;;;261.98;;
63906;SDS011;50075;49.484;11.238;2023-12-22T07:50:44;419.13;;;184.85;;
63906;SDS011;50075;49.484;11.238;2023-12-22T07:53:10;581.33;;;349.13;;
63906;SDS011;50075;49.484;11.238;2023-12-22T07:55:36;443.58;;;202.68;;
63906;SDS011;50075;49.484;11.238;2023-12-22T07:58:03;541.33;;;253.77;;
63906;SDS011;50075;49.484;11.238;2023-12-22T08:00:29;429.85;;;165.00;;
63906;SDS011;50075;49.484;11.238;2023-12-22T08:02:54;425.63;;;218.43;;
63906;SDS011;50075;49.484;11.238;2023-12-22T08:05:19;453.20;;;277.67;;
63906;SDS011;50075;49.484;11.238;2023-12-22T08:07:45;423.77;;;312.65;;
63906;SDS011;50075;49.484;11.238;2023-12-22T08:10:10;589.35;;;237.10;;
63906;SDS011;50075;49.484;11.238;2023-12-22T08:12:36;371.58;;;154.98;;
63906;SDS011;50075;49.484;11.238;2023-12-22T08:15:01;405.20;;;280.80;;
63906;SDS011;50075;49.484;11.238;2023-12-22T08:17:27;397.45;;;201.93;;
63906;SDS011;50075;49.484;11.238;2023-12-22T08:19:53;315.00;;;144.15;;
63906;SDS011;50075;49.484;11.238;2023-12-22T08:22:18;514.90;;;223.73;;
63906;SDS011;50075;49.484;11.238;2023-12-22T08:24:43;443.30;;;263.25;;
63906;SDS011;50075;49.484;11.238;2023-12-22T08:27:09;434.17;;;181.45;;
63906;SDS011;50075;49.484;11.238;2023-12-22T08:29:34;346.83;;;178.98;;
63906;SDS011;50075;49.484;11.238;2023-12-22T08:32:00;392.77;;;162.75;;
63906;SDS011;50075;49.484;11.238;2023-12-22T08:34:26;374.38;;;189.65;;
63906;SDS011;50075;49.484;11.238;2023-12-22T08:36:51;420.17;;;257.88;;
63906;SDS011;50075;49.484;11.238;2023-12-22T08:39:17;578.30;;;219.27;;
63906;SDS011;50075;49.484;11.238;2023-12-22T08:41:42;659.00;;;213.88;;
63906;SDS011;50075;49.484;11.238;2023-12-22T08:44:08;418.95;;;167.00;;
63906;SDS011;50075;49.484;11.238;2023-12-22T08:46:33;460.95;;;248.43;;
63906;SDS011;50075;49.484;11.238;2023-12-22T08:48:59;351.45;;;172.95;;
63906;SDS011;50075;49.484;11.238;2023-12-22T08:51:27;402.45;;;208.27;;
63906;SDS011;50075;49.484;11.238;2023-12-22T08:53:53;400.73;;;202.13;;
63906;SDS011;50075;49.484;11.238;2023-12-22T08:56:22;394.65;;;208.15;;
63906;SDS011;50075;49.484;11.238;2023-12-22T08:58:48;416.30;;;221.00;;
63906;SDS011;50075;49.484;11.238;2023-12-22T09:01:16;558.42;;;259.70;;
63906;SDS011;50075;49.484;11.238;2023-12-22T09:03:43;398.00;;;197.40;;
63906;SDS011;50075;49.484;11.238;2023-12-22T09:06:14;512.80;;;262.38;;
63906;SDS011;50075;49.484;11.238;2023-12-22T09:08:43;396.80;;;166.88;;
63906;SDS011;50075;49.484;11.238;2023-12-22T09:11:13;566.38;;;273.08;;
63906;SDS011;50075;49.484;11.238;2023-12-22T09:13:40;419.90;;;215.48;;
63906;SDS011;50075;49.484;11.238;2023-12-22T09:16:06;413.23;;;158.88;;
63906;SDS011;50075;49.484;11.238;2023-12-22T09:18:32;397.30;;;153.80;;
63906;SDS011;50075;49.484;11.238;2023-12-22T09:20:58;440.42;;;195.43;;
63906;SDS011;50075;49.484;11.238;2023-12-22T09:23:23;400.10;;;224.48;;
63906;SDS011;50075;49.484;11.238;2023-12-22T09:25:49;398.52;;;165.20;;
63906;SDS011;50075;49.484;11.238;2023-12-22T09:28:14;431.08;;;157.73;;
63906;SDS011;50075;49.484;11.238;2023-12-22T09:30:40;393.77;;;154.75;;
63906;SDS011;50075;49.484;11.238;2023-12-22T09:33:06;437.55;;;180.07;;
63906;SDS011;50075;49.484;11.238;2023-12-22T09:35:32;378.27;;;172.60;;
63906;SDS011;50075;49.484;11.238;2023-12-22T09:38:00;360.73;;;156.85;;
63906;SDS011;50075;49.484;11.238;2023-12-22T09:40:26;441.95;;;167.98;;
63906;SDS011;50075;49.484;11.238;2023-12-22T09:42:52;395.65;;;177.60;;
63906;SDS011;50075;49.484;11.238;2023-12-22T09:45:20;525.03;;;181.77;;
63906;SDS011;50075;49.484;11.238;2023-12-22T09:47:47;412.83;;;169.02;;
63906;SDS011;50075;49.484;11.238;2023-12-22T09:50:13;524.83;;;167.18;;
63906;SDS011;50075;49.484;11.238;2023-12-22T09:52:40;376.65;;;168.70;;
63906;SDS011;50075;49.484;11.238;2023-12-22T09:55:08;451.85;;;217.70;;
63906;SDS011;50075;49.484;11.238;2023-12-22T09:57:35;390.00;;;204.95;;
63906;SDS011;50075;49.484;11.238;2023-12-22T10:00:03;399.23;;;204.40;;
63906;SDS011;50075;49.484;11.238;2023-12-22T10:02:58;163.93;;;91.47;;
63906;SDS011;50075;49.484;11.238;2023-12-22T10:05:23;249.77;;;130.27;;
63906;SDS011;50075;49.484;11.238;2023-12-22T10:07:49;135.85;;;67.57;;
63906;SDS011;50075;49.484;11.238;2023-12-22T10:10:15;151.25;;;13.93;;
63906;SDS011;50075;49.484;11.238;2023-12-22T10:12:42;104.68;;;41.92;;
63906;SDS011;50075;49.484;11.238;2023-12-22T10:15:10;75.10;;;31.60;;
63906;SDS011;50075;49.484;11.238;2023-12-22T10:17:38;109.38;;;46.03;;
63906;SDS011;50075;49.484;11.238;2023-12-22T10:20:04;78.68;;;10.75;;
63906;SDS011;50075;49.484;11.238;2023-12-22T10:22:30;107.97;;;54.50;;
63906;SDS011;50075;49.484;11.238;2023-12-22T10:24:55;114.40;;;43.60;;
63906;SDS011;50075;49.484;11.238;2023-12-22T10:27:20;167.15;;;48.35;;
63906;SDS011;50075;49.484;11.238;2023-12-22T10:29:49;100.97;;;25.75;;
63906;SDS011;50075;49.484;11.238;2023-12-22T10:32:15;222.27;;;92.20;;
63906;SDS011;50075;49.484;11.238;2023-12-22T10:34:41;188.63;;;127.22;;
63906;SDS011;50075;49.484;11.238;2023-12-22T10:37:06;113.78;;;81.53;;
63906;SDS011;50075;49.484;11.238;2023-12-22T10:39:32;67.63;;;37.60;;
63906;SDS011;50075;49.484;11.238;2023-12-22T10:41:58;65.95;;;7.68;;
63906;SDS011;50075;49.484;11.238;2023-12-22T10:44:25;111.63;;;8.85;;
63906;SDS011;50075;49.484;11.238;2023-12-22T10:46:50;82.90;;;11.43;;
63906;SDS011;50075;49.484;11.238;2023-12-22T10:49:17;174.85;;;26.80;;
63906;SDS011;50075;49.484;11.238;2023-12-22T10:51:43;123.88;;;55.58;;
63906;SDS011;50075;49.484;11.238;2023-12-22T10:54:09;114.22;;;19.10;;
63906;SDS011;50075;49.484;11.238;2023-12-22T10:56:34;152.02;;;90.57;;
63906;SDS011;50075;49.484;11.238;2023-12-22T10:58:59;92.45;;;18.50;;
63906;SDS011;50075;49.484;11.238;2023-12-22T11:01:28;235.27;;;139.55;;
63906;SDS011;50075;49.484;11.238;2023-12-22T11:03:54;96.53;;;36.03;;
63906;SDS011;50075;49.484;11.238;2023-12-22T11:06:23;89.65;;;14.20;;
63906;SDS011;50075;49.484;11.238;2023-12-22T11:08:51;91.45;;;9.93;;
63906;SDS011;50075;49.484;11.238;2023-12-22T11:11:29;158.48;;;87.75;;
63906;SDS011;50075;49.484;11.238;2023-12-22T11:13:58;115.30;;;49.95;;
63906;SDS011;50075;49.484;11.238;2023-12-22T11:16:24;120.82;;;40.17;;
63906;SDS011;50075;49.484;11.238;2023-12-22T11:18:55;82.18;;;57.25;;
63906;SDS011;50075;49.484;11.238;2023-12-22T11:21:21;198.80;;;86.28;;
63906;SDS011;50075;49.484;11.238;2023-12-22T11:23:48;84.20;;;21.10;;
63906;SDS011;50075;49.484;11.238;2023-12-22T11:26:15;178.60;;;91.20;;
63906;SDS011;50075;49.484;11.238;2023-12-22T11:28:42;101.40;;;11.88;;
63906;SDS011;50075;49.484;11.238;2023-12-22T11:31:09;289.52;;;238.73;;
63906;SDS011;50075;49.484;11.238;2023-12-22T11:33:36;190.32;;;128.85;;
63906;SDS011;50075;49.484;11.238;2023-12-22T11:36:03;114.75;;;45.50;;
63906;SDS011;50075;49.484;11.238;2023-12-22T11:38:30;155.73;;;52.80;;
63906;SDS011;50075;49.484;11.238;2023-12-22T11:40:56;124.53;;;41.88;;
63906;SDS011;50075;49.484;11.238;2023-12-22T11:43:24;224.18;;;173.63;;
63906;SDS011;50075;49.484;11.238;2023-12-22T11:45:50;192.77;;;117.38;;
63906;SDS011;50075;49.484;11.238;2023-12-22T11:48:15;212.02;;;114.63;;
63906;SDS011;50075;49.484;11.238;2023-12-22T11:50:41;193.68;;;108.85;;
63906;SDS011;50075;49.484;11.238;2023-12-22T11:53:41;178.05;;;105.72;;
63906;SDS011;50075;49.484;11.238;2023-12-22T11:56:03;176.37;;;91.03;;
63906;SDS011;50075;49.484;11.238;2023-12-22T12:01:10;70.00;;;32.30;;
63906;SDS011;50075;49.484;11.238;2023-12-22T12:03:38;160.95;;;54.70;;
63906;SDS011;50075;49.484;11.238;2023-12-22T12:08:38;210.00;;;173.98;;
63906;SDS011;50075;49.484;11.238;2023-12-22T12:11:03;201.82;;;179.52;;
63906;SDS011;50075;49.484;11.238;2023-12-22T12:13:30;164.68;;;50.95;;
63906;SDS011;50075;49.484;11.238;2023-12-22T12:15:58;138.82;;;91.70;;
63906;SDS011;50075;49.484;11.238;2023-12-22T12:18:29;177.70;;;33.80;;
63906;SDS011;50075;49.484;11.238;2023-12-22T12:20:58;188.27;;;119.90;;
63906;SDS011;50075;49.484;11.238;2023-12-22T12:23:24;178.48;;;48.60;;
63906;SDS011;50075;49.484;11.238;2023-12-22T12:25:51;141.57;;;84.47;;
63906;SDS011;50075;49.484;11.238;2023-12-22T12:28:17;239.00;;;180.32;;
63906;SDS011;50075;49.484;11.238;2023-12-22T12:30:52;185.20;;;99.78;;
63906;SDS011;50075;49.484;11.238;2023-12-22T12:33:23;268.27;;;149.85;;
63906;SDS011;50075;49.484;11.238;2023-12-22T12:35:49;135.05;;;59.15;;
63906;SDS011;50075;49.484;11.238;2023-12-22T12:38:19;141.07;;;70.25;;
63906;SDS011;50075;49.484;11.238;2023-12-22T12:40:46;165.65;;;114.82;;
63906;SDS011;50075;49.484;11.238;2023-12-22T12:43:15;87.35;;;30.05;;
63906;SDS011;50075;49.484;11.238;2023-12-22T12:45:42;182.45;;;39.72;;
63906;SDS011;50075;49.484;11.238;2023-12-22T12:48:07;137.75;;;79.03;;
63906;SDS011;50075;49.484;11.238;2023-12-22T12:50:33;308.90;;;140.45;;
63906;SDS011;50075;49.484;11.238;2023-12-22T12:52:58;232.02;;;154.73;;
63906;SDS011;50075;49.484;11.238;2023-12-22T12:55:25;238.38;;;114.28;;
63906;SDS011;50075;49.484;11.238;2023-12-22T12:57:54;215.45;;;141.70;;
63906;SDS011;50075;49.484;11.238;2023-12-22T13:00:27;257.02;;;181.43;;
63906;SDS011;50075;49.484;11.238;2023-12-22T13:02:55;219.02;;;136.75;;
63906;SDS011;50075;49.484;11.238;2023-12-22T13:05:24;216.85;;;55.03;;
63906;SDS011;50075;49.484;11.238;2023-12-22T13:07:51;204.50;;;145.07;;
63906;SDS011;50075;49.484;11.238;2023-12-22T13:10:23;251.20;;;138.45;;
63906;SDS011;50075;49.484;11.238;2023-12-22T13:12:52;123.20;;;35.42;;
63906;SDS011;50075;49.484;11.238;2023-12-22T13:15:19;130.93;;;67.55;;
63906;SDS011;50075;49.484;11.238;2023-12-22T13:17:46;252.68;;;168.15;;
63906;SDS011;50075;49.484;11.238;2023-12-22T13:20:12;141.75;;;39.45;;
63906;SDS011;50075;49.484;11.238;2023-12-22T13:22:38;175.70;;;103.18;;
63906;SDS011;50075;49.484;11.238;2023-12-22T13:25:04;254.18;;;177.13;;
63906;SDS011;50075;49.484;11.238;2023-12-22T13:27:29;335.58;;;224.20;;
63906;SDS011;50075;49.484;11.238;2023-12-22T13:29:55;181.45;;;102.03;;
63906;SDS011;50075;49.484;11.238;2023-12-22T13:32:21;370.40;;;256.98;;
63906;SDS011;50075;49.484;11.238;2023-12-22T13:34:50;219.10;;;155.77;;
63906;SDS011;50075;49.484;11.238;2023-12-22T13:37:17;148.85;;;101.65;;
63906;SDS011;50075;49.484;11.238;2023-12-22T13:39:43;221.70;;;146.70;;
63906;SDS011;50075;49.484;11.238;2023-12-22T13:42:18;176.30;;;123.38;;
63906;SDS011;50075;49.484;11.238;2023-12-22T13:44:45;219.43;;;118.78;;
63906;SDS011;50075;49.484;11.238;2023-12-22T13:47:15;87.85;;;43.55;;
63906;SDS011;50075;49.484;11.238;2023-12-22T13:49:41;233.77;;;176.27;;
63906;SDS011;50075;49.484;11.238;2023-12-22T13:52:08;227.27;;;180.48;;
63906;SDS011;50075;49.484;11.238;2023-12-22T13:54:33;310.60;;;195.88;;